Time;durP1;ratioP1;P1;durP2;ratioP2;P2;SDS_P1;SDS_P2;PMS_P1;PMS_P2;Temp;Humidity;BMP_temperature;BMP_pressure;BME280_temperature;BME280_humidity;BME280_pressure;Samples;Min_cycle;Max_cycle;Signal;HPM_P1;HPM_P2
2022/02/13 00:00:59;;;;;;;17.55;11.55;;;0.90;99.90;;;;;;5025959;28;20545;-84
2022/02/13 00:03:30;;;;;;;16.92;10.32;;;0.90;99.90;;;;;;5028005;28;20683;-84
2022/02/13 00:05:56;;;;;;;17.23;11.45;;;1.00;99.90;;;;;;5011052;28;20679;-84
2022/02/13 00:08:23;;;;;;;18.52;11.52;;;1.00;99.90;;;;;;5012404;28;20480;-84
2022/02/13 00:11:10;;;;;;;18.23;10.88;;;1.10;99.90;;;;;;5012077;28;20530;-84
2022/02/13 00:13:37;;;;;;;20.80;12.13;;;1.10;99.90;;;;;;5028379;28;20097;-84
2022/02/13 00:16:04;;;;;;;14.02;11.60;;;1.10;99.90;;;;;;5011953;28;20049;-85
2022/02/13 00:18:31;;;;;;;14.65;12.23;;;1.10;99.90;;;;;;5025711;28;20775;-84
2022/02/13 00:20:58;;;;;;;14.38;11.13;;;1.10;99.90;;;;;;5011920;28;20044;-84
2022/02/13 00:23:25;;;;;;;19.92;12.07;;;1.00;99.90;;;;;;5028405;28;20048;-84
2022/02/13 00:25:52;;;;;;;16.00;12.15;;;1.00;99.90;;;;;;5011878;28;20071;-84
2022/02/13 00:28:19;;;;;;;18.55;10.95;;;1.00;99.90;;;;;;5027976;28;20103;-84
2022/02/13 00:30:46;;;;;;;16.70;10.63;;;1.00;99.90;;;;;;5009707;28;20042;-84
2022/02/13 00:33:17;;;;;;;15.57;11.55;;;1.00;99.90;;;;;;5013020;28;20045;-84
2022/02/13 00:35:48;;;;;;;16.13;10.80;;;1.00;99.90;;;;;;5026456;28;20045;-84
2022/02/13 00:38:16;;;;;;;14.55;10.95;;;1.00;99.90;;;;;;5027101;28;20045;-84
2022/02/13 00:40:44;;;;;;;16.13;10.63;;;1.00;99.90;;;;;;5011145;28;20064;-84
2022/02/13 00:43:11;;;;;;;19.80;12.77;;;1.00;99.90;;;;;;5007989;28;20053;-83
2022/02/13 00:45:37;;;;;;;28.23;15.35;;;0.90;99.90;;;;;;5007935;28;20042;-84
2022/02/13 00:48:05;;;;;;;28.98;14.73;;;0.90;99.90;;;;;;5019439;28;20457;-84
2022/02/13 00:50:31;;;;;;;31.63;15.30;;;0.80;99.90;;;;;;5032218;28;20045;-84
2022/02/13 00:52:58;;;;;;;21.25;13.60;;;0.80;99.90;;;;;;5010601;28;20037;-83
2022/02/13 00:55:26;;;;;;;18.90;11.75;;;0.80;99.90;;;;;;5013178;28;20050;-84
2022/02/13 00:57:53;;;;;;;17.95;12.95;;;0.70;99.90;;;;;;4992134;28;20057;-84
2022/02/13 01:00:21;;;;;;;23.25;12.95;;;0.70;99.90;;;;;;5007273;28;20065;-84
2022/02/13 01:02:48;;;;;;;17.55;12.07;;;0.70;99.90;;;;;;5009840;28;20099;-84
2022/02/13 01:05:15;;;;;;;14.70;11.05;;;0.70;99.90;;;;;;5026014;28;20098;-84
2022/02/13 01:07:42;;;;;;;19.38;12.00;;;0.70;99.90;;;;;;5032282;28;20064;-84
2022/02/13 01:10:09;;;;;;;13.20;11.82;;;0.70;99.90;;;;;;5017640;28;20560;-83
2022/02/13 01:12:36;;;;;;;16.92;10.50;;;0.70;99.90;;;;;;5015203;28;20045;-84
2022/02/13 01:15:04;;;;;;;15.88;11.43;;;0.70;99.90;;;;;;5012387;28;20107;-84
2022/02/13 01:17:31;;;;;;;16.60;12.00;;;0.60;99.90;;;;;;4996196;28;20045;-84
2022/02/13 01:19:58;;;;;;;14.30;11.63;;;0.60;99.90;;;;;;5024769;28;20048;-84
2022/02/13 01:22:25;;;;;;;15.15;12.30;;;0.50;99.90;;;;;;5030813;28;20041;-84
2022/02/13 01:24:51;;;;;;;17.73;11.90;;;0.50;99.90;;;;;;5014878;28;20086;-84
2022/02/13 01:27:18;;;;;;;22.75;12.20;;;0.50;99.90;;;;;;5014034;28;20108;-84
2022/02/13 01:29:45;;;;;;;23.20;13.85;;;0.50;99.90;;;;;;5030806;28;20709;-85
2022/02/13 01:32:12;;;;;;;18.23;12.23;;;0.40;99.90;;;;;;5001662;28;20040;-85
2022/02/13 01:34:38;;;;;;;16.85;11.48;;;0.40;99.90;;;;;;5030133;28;20052;-85
2022/02/13 01:37:05;;;;;;;15.88;10.73;;;0.30;99.90;;;;;;5013735;28;20413;-85
2022/02/13 01:39:33;;;;;;;17.77;11.90;;;0.30;99.90;;;;;;5030720;28;20406;-85
2022/02/13 01:42:01;;;;;;;17.55;12.23;;;0.30;99.90;;;;;;5029005;28;20072;-85
2022/02/13 01:44:32;;;;;;;18.92;13.23;;;0.30;99.90;;;;;;5022707;28;20107;-84
2022/02/13 01:47:00;;;;;;;14.90;10.95;;;0.20;99.90;;;;;;5030376;28;20583;-85
2022/02/13 01:49:27;;;;;;;18.65;11.32;;;0.20;99.90;;;;;;5012871;28;20432;-84
2022/02/13 01:51:57;;;;;;;15.73;11.30;;;0.10;99.90;;;;;;5023999;28;20131;-85
2022/02/13 01:54:24;;;;;;;14.45;10.68;;;0.10;99.90;;;;;;5011970;28;20037;-84
2022/02/13 01:56:51;;;;;;;17.90;11.70;;;0.10;99.90;;;;;;5010623;28;20365;-85
2022/02/13 01:59:18;;;;;;;17.75;11.05;;;-0.10;99.90;;;;;;5020083;28;20052;-84
2022/02/13 02:01:45;;;;;;;17.80;11.63;;;-0.10;99.90;;;;;;5014178;28;20047;-85
2022/02/13 02:04:12;;;;;;;24.33;12.52;;;0.00;99.90;;;;;;5015600;28;20310;-84
2022/02/13 02:06:40;;;;;;;15.68;10.98;;;-0.10;99.90;;;;;;5027559;28;20133;-84
2022/02/13 02:09:06;;;;;;;17.98;11.40;;;-0.10;99.90;;;;;;5028752;28;20053;-84
2022/02/13 02:11:33;;;;;;;18.77;11.40;;;-0.10;99.90;;;;;;5014631;28;20506;-84
2022/02/13 02:14:00;;;;;;;16.63;11.02;;;-0.10;99.90;;;;;;5014318;28;20056;-84
2022/02/13 02:16:27;;;;;;;17.35;11.30;;;-0.20;99.90;;;;;;5015362;28;20195;-84
2022/02/13 02:18:54;;;;;;;18.50;12.07;;;-0.20;99.90;;;;;;5000408;28;20049;-84
2022/02/13 02:21:21;;;;;;;14.93;11.10;;;-0.40;99.90;;;;;;5038680;28;20044;-84
2022/02/13 02:23:48;;;;;;;23.98;12.27;;;-0.40;99.90;;;;;;5023119;28;20136;-84
2022/02/13 02:26:20;;;;;;;20.77;12.50;;;-0.30;99.90;;;;;;5033736;28;20044;-84
2022/02/13 02:28:47;;;;;;;17.83;11.13;;;-0.30;99.90;;;;;;5013903;28;20084;-84
2022/02/13 02:31:14;;;;;;;19.45;12.07;;;-0.30;99.90;;;;;;4999355;28;20399;-85
2022/02/13 02:33:41;;;;;;;20.08;13.88;;;-0.30;99.90;;;;;;5020090;28;20074;-84
2022/02/13 02:36:19;;;;;;;19.52;12.95;;;-0.50;99.90;;;;;;5026583;28;20042;-84
2022/02/13 02:38:48;;;;;;;23.52;13.45;;;-0.40;99.90;;;;;;5048588;28;20057;-84
2022/02/13 02:41:16;;;;;;;22.67;12.20;;;-0.40;99.90;;;;;;5031348;28;20049;-84
2022/02/13 02:43:43;;;;;;;22.60;13.60;;;-0.70;99.90;;;;;;5030587;28;20053;-84
2022/02/13 02:46:11;;;;;;;20.33;11.88;;;-0.80;99.90;;;;;;5022102;28;20696;-83
2022/02/13 02:48:39;;;;;;;21.88;13.68;;;-0.90;99.90;;;;;;5025282;28;20037;-84
2022/02/13 02:51:06;;;;;;;22.60;12.73;;;-0.90;99.90;;;;;;5017154;28;20042;-84
2022/02/13 02:53:33;;;;;;;19.27;12.50;;;-0.90;99.90;;;;;;4997818;28;20042;-84
2022/02/13 02:56:01;;;;;;;19.77;13.65;;;-1.00;99.90;;;;;;5019227;28;20274;-84
2022/02/13 02:58:29;;;;;;;16.85;12.07;;;-1.00;99.90;;;;;;5026841;28;20060;-84
2022/02/13 03:00:56;;;;;;;15.13;10.55;;;-1.10;99.90;;;;;;5028032;28;20781;-84
2022/02/13 03:03:24;;;;;;;21.60;12.90;;;-1.00;99.90;;;;;;5008328;28;20064;-84
2022/02/13 03:05:52;;;;;;;20.77;11.23;;;-1.00;99.90;;;;;;5001907;28;20606;-84
2022/02/13 03:08:20;;;;;;;15.32;11.18;;;-0.90;99.90;;;;;;5014177;28;20064;-84
2022/02/13 03:10:47;;;;;;;19.02;11.68;;;-1.00;99.90;;;;;;5009721;28;20659;-84
2022/02/13 03:13:16;;;;;;;21.58;13.10;;;-1.00;99.90;;;;;;5024479;28;20056;-84
2022/02/13 03:15:43;;;;;;;24.65;12.90;;;-0.90;99.90;;;;;;5018211;28;20081;-83
2022/02/13 03:18:10;;;;;;;19.40;11.80;;;-1.10;99.90;;;;;;5007375;28;20282;-83
2022/02/13 03:20:38;;;;;;;19.83;12.00;;;-1.20;99.90;;;;;;5023887;28;20044;-84
2022/02/13 03:23:05;;;;;;;21.13;11.57;;;-1.00;99.90;;;;;;5030452;28;20113;-84
2022/02/13 03:25:32;;;;;;;21.98;13.00;;;-1.00;99.90;;;;;;5021557;28;20053;-84
2022/02/13 03:27:59;;;;;;;19.15;11.63;;;-1.00;99.90;;;;;;5007815;28;20053;-84
2022/02/13 03:30:25;;;;;;;24.67;13.60;;;-0.90;99.90;;;;;;5024181;28;20052;-84
2022/02/13 03:32:53;;;;;;;23.98;12.13;;;-1.00;99.90;;;;;;5027075;28;20075;-84
2022/02/13 03:35:19;;;;;;;20.10;12.52;;;-1.00;99.90;;;;;;5026298;28;20048;-84
2022/02/13 03:37:46;;;;;;;23.58;12.48;;;-1.10;99.90;;;;;;5010644;28;20045;-84
2022/02/13 03:40:13;;;;;;;17.15;11.38;;;-1.10;99.90;;;;;;5011339;28;20455;-84
2022/02/13 03:42:40;;;;;;;22.88;12.40;;;-1.00;99.90;;;;;;5017343;28;20057;-84
2022/02/13 03:45:07;;;;;;;22.95;12.20;;;-1.10;99.90;;;;;;5010865;28;20541;-84
2022/02/13 03:47:34;;;;;;;22.55;12.43;;;-1.10;99.90;;;;;;5008215;28;20037;-84
2022/02/13 03:50:01;;;;;;;23.00;13.15;;;-1.10;99.90;;;;;;5022179;28;20079;-84
2022/02/13 03:52:28;;;;;;;21.55;13.70;;;-1.10;99.90;;;;;;5007098;28;20053;-84
2022/02/13 03:54:55;;;;;;;24.08;11.93;;;-1.00;99.90;;;;;;5011227;28;20072;-84
2022/02/13 03:57:22;;;;;;;27.58;12.73;;;-1.00;99.90;;;;;;5010824;28;20056;-84
2022/02/13 03:59:48;;;;;;;16.70;11.07;;;-0.90;99.90;;;;;;5027436;28;20048;-84
2022/02/13 04:02:16;;;;;;;17.95;12.00;;;-0.80;99.90;;;;;;5011179;28;20053;-82
2022/02/13 04:04:43;;;;;;;19.55;11.63;;;-0.70;99.90;;;;;;5007028;28;20131;-84
2022/02/13 04:07:09;;;;;;;22.88;12.45;;;-0.70;99.90;;;;;;5010202;28;20049;-84
2022/02/13 04:09:36;;;;;;;20.90;11.93;;;-0.70;99.90;;;;;;5009392;28;20079;-84
2022/02/13 04:12:03;;;;;;;17.20;11.68;;;-0.70;99.90;;;;;;5024827;28;20048;-84
2022/02/13 04:14:30;;;;;;;18.20;11.07;;;-0.70;99.90;;;;;;5018208;28;20152;-83
2022/02/13 04:16:59;;;;;;;25.42;13.48;;;-0.70;99.90;;;;;;5006976;28;20856;-84
2022/02/13 04:19:25;;;;;;;17.42;12.80;;;-0.70;99.90;;;;;;5013594;28;20044;-84
2022/02/13 04:21:52;;;;;;;19.75;12.57;;;-0.70;99.90;;;;;;5022797;28;20053;-84
2022/02/13 04:24:19;;;;;;;22.23;12.95;;;-0.80;99.90;;;;;;5023225;28;20041;-84
2022/02/13 04:26:46;;;;;;;20.52;13.60;;;-0.80;99.90;;;;;;5022423;28;20111;-83
2022/02/13 04:29:12;;;;;;;21.00;13.82;;;-0.80;99.90;;;;;;4997626;28;20384;-84
2022/02/13 04:31:39;;;;;;;17.88;13.35;;;-0.90;99.90;;;;;;5012434;28;20077;-84
2022/02/13 04:34:07;;;;;;;21.60;13.38;;;-1.00;99.90;;;;;;4991506;28;20130;-84
2022/02/13 04:36:37;;;;;;;23.48;13.48;;;-1.10;99.90;;;;;;5006751;28;20132;-84
2022/02/13 04:39:05;;;;;;;19.15;13.50;;;-1.10;99.90;;;;;;5021022;28;20049;-84
2022/02/13 04:41:32;;;;;;;21.08;15.00;;;-1.20;99.90;;;;;;5020616;28;20042;-84
2022/02/13 04:43:59;;;;;;;22.23;14.63;;;-1.30;99.90;;;;;;5025102;28;20053;-83
2022/02/13 04:46:26;;;;;;;24.52;14.85;;;-1.30;99.90;;;;;;5012710;28;20077;-84
2022/02/13 04:48:52;;;;;;;22.70;14.63;;;-1.30;99.90;;;;;;5014751;28;20064;-84
2022/02/13 04:51:19;;;;;;;21.73;13.70;;;-1.20;99.90;;;;;;5014513;28;20087;-86
2022/02/13 04:53:46;;;;;;;28.58;15.02;;;-1.20;99.90;;;;;;5033716;28;20068;-85
2022/02/13 04:56:14;;;;;;;28.75;14.57;;;-1.10;99.90;;;;;;5032462;28;20049;-85
2022/02/13 04:58:41;;;;;;;23.98;14.23;;;-1.20;99.90;;;;;;5017783;28;20053;-85
2022/02/13 05:01:09;;;;;;;25.13;14.27;;;-1.20;99.90;;;;;;5032513;28;20041;-86
2022/02/13 05:03:36;;;;;;;26.10;15.93;;;-1.20;99.90;;;;;;5016634;28;20045;-86
2022/02/13 05:06:04;;;;;;;31.25;15.63;;;-1.20;99.90;;;;;;5032953;28;20660;-85
2022/02/13 05:08:31;;;;;;;23.45;16.35;;;-1.20;99.90;;;;;;5017271;28;20045;-86
2022/02/13 05:10:58;;;;;;;27.38;16.58;;;-1.20;99.90;;;;;;5016407;28;20045;-86
2022/02/13 05:13:25;;;;;;;28.63;15.38;;;-1.20;99.90;;;;;;5016646;28;20704;-86
2022/02/13 05:15:51;;;;;;;29.30;14.23;;;-1.10;99.90;;;;;;5033382;28;20048;-86
2022/02/13 05:18:18;;;;;;;22.48;14.30;;;-1.10;99.90;;;;;;5032821;28;20067;-87
2022/02/13 05:20:45;;;;;;;25.50;14.45;;;-1.10;99.90;;;;;;5032271;28;20506;-85
2022/02/13 05:23:11;;;;;;;26.73;15.05;;;-1.10;99.90;;;;;;5031486;28;20051;-85
2022/02/13 05:25:38;;;;;;;29.80;15.60;;;-1.00;99.90;;;;;;5032602;28;20051;-85
2022/02/13 05:28:05;;;;;;;27.10;15.25;;;-1.10;99.90;;;;;;5032356;28;20178;-85
2022/02/13 05:30:32;;;;;;;26.40;15.60;;;-1.10;99.90;;;;;;5032196;28;20056;-86
2022/02/13 05:32:59;;;;;;;26.33;15.70;;;-1.10;99.90;;;;;;5032343;28;20569;-85
2022/02/13 05:35:26;;;;;;;26.58;16.48;;;-1.10;99.90;;;;;;5015464;28;20061;-85
2022/02/13 05:37:53;;;;;;;29.92;15.75;;;-1.10;99.90;;;;;;5031340;28;20048;-85
2022/02/13 05:40:20;;;;;;;29.33;15.63;;;-1.10;99.90;;;;;;5019550;28;20087;-85
2022/02/13 05:42:46;;;;;;;28.88;15.95;;;-1.10;99.90;;;;;;5015537;28;20505;-85
2022/02/13 05:45:13;;;;;;;24.10;15.88;;;-1.20;99.90;;;;;;5031431;28;20565;-86
2022/02/13 05:47:41;;;;;;;28.83;16.70;;;-1.20;99.90;;;;;;5032256;28;20049;-86
2022/02/13 05:50:09;;;;;;;27.50;15.68;;;-1.20;99.90;;;;;;5015296;28;20060;-86
2022/02/13 05:52:36;;;;;;;26.38;16.77;;;-1.20;99.90;;;;;;5031451;28;20056;-84
2022/02/13 05:55:06;;;;;;;25.92;16.67;;;-1.30;99.90;;;;;;5027629;28;20080;-86
2022/02/13 05:57:33;;;;;;;30.02;16.38;;;-1.20;99.90;;;;;;5012516;28;20187;-85
2022/02/13 06:00:00;;;;;;;31.83;15.70;;;-1.30;99.90;;;;;;5029409;28;20049;-85
2022/02/13 06:02:26;;;;;;;20.58;15.88;;;-1.30;99.90;;;;;;5032285;28;20056;-86
2022/02/13 06:04:53;;;;;;;24.13;17.15;;;-1.30;99.90;;;;;;5031790;28;20055;-86
2022/02/13 06:07:20;;;;;;;28.35;16.25;;;-1.30;99.90;;;;;;5015457;28;20041;-84
2022/02/13 06:09:47;;;;;;;27.13;16.80;;;-1.30;99.90;;;;;;5031237;28;20124;-85
2022/02/13 06:12:14;;;;;;;21.90;16.13;;;-1.30;99.90;;;;;;5030070;28;20114;-85
2022/02/13 06:14:41;;;;;;;28.27;16.75;;;-1.20;99.90;;;;;;5032708;28;20465;-85
2022/02/13 06:17:07;;;;;;;30.50;16.70;;;-1.20;99.90;;;;;;5031027;28;20136;-85
2022/02/13 06:19:34;;;;;;;27.05;17.13;;;-1.20;99.90;;;;;;5030900;28;20103;-86
2022/02/13 06:22:01;;;;;;;26.92;17.50;;;-1.20;99.90;;;;;;5014275;28;20049;-86
2022/02/13 06:24:28;;;;;;;24.92;17.23;;;-1.10;99.90;;;;;;5014182;28;20049;-85
2022/02/13 06:26:54;;;;;;;21.95;16.35;;;-1.00;99.90;;;;;;5031190;28;20049;-85
2022/02/13 06:29:22;;;;;;;29.58;16.30;;;-1.00;99.90;;;;;;5031001;28;20103;-85
2022/02/13 06:31:49;;;;;;;29.33;18.00;;;-1.00;99.90;;;;;;5015006;28;20045;-86
2022/02/13 06:34:16;;;;;;;24.80;17.75;;;-1.00;99.90;;;;;;5024967;28;20043;-84
2022/02/13 06:36:42;;;;;;;24.52;18.00;;;-1.00;99.90;;;;;;5029861;28;20073;-86
2022/02/13 06:39:09;;;;;;;28.05;18.33;;;-1.00;99.90;;;;;;5031298;28;20500;-84
2022/02/13 06:41:36;;;;;;;24.63;18.63;;;-1.00;99.90;;;;;;5031637;28;20475;-84
2022/02/13 06:44:03;;;;;;;32.58;19.98;;;-1.10;99.90;;;;;;5030929;28;20102;-88
2022/02/13 06:46:30;;;;;;;26.65;18.25;;;-1.10;99.90;;;;;;5012483;28;20041;-83
2022/02/13 06:48:59;;;;;;;28.70;20.58;;;-1.10;99.90;;;;;;5031350;28;20083;-85
2022/02/13 06:51:25;;;;;;;34.13;19.42;;;-1.10;99.90;;;;;;5013958;28;20045;-84
2022/02/13 06:53:52;;;;;;;25.63;18.70;;;-1.20;99.90;;;;;;5032187;28;20190;-86
2022/02/13 06:56:19;;;;;;;29.90;19.77;;;-1.20;99.90;;;;;;5010396;28;20045;-86
2022/02/13 06:58:46;;;;;;;26.45;20.30;;;-1.20;99.90;;;;;;5011885;28;20717;-84
2022/02/13 07:01:14;;;;;;;30.95;19.77;;;-1.20;99.90;;;;;;5010792;28;20049;-84
2022/02/13 07:03:41;;;;;;;29.40;18.52;;;-1.10;99.90;;;;;;5027985;28;20056;-84
2022/02/13 07:06:08;;;;;;;28.75;19.33;;;-1.10;99.90;;;;;;5029055;28;20044;-84
2022/02/13 07:08:35;;;;;;;29.83;18.20;;;-1.10;99.90;;;;;;5030142;28;20516;-84
2022/02/13 07:11:04;;;;;;;28.63;17.23;;;-1.10;99.90;;;;;;5006876;28;20044;-84
2022/02/13 07:13:31;;;;;;;26.85;19.63;;;-1.00;99.90;;;;;;5030829;28;20148;-84
2022/02/13 07:15:58;;;;;;;30.23;18.60;;;-1.00;99.90;;;;;;5013648;28;20106;-84
2022/02/13 07:18:25;;;;;;;31.40;20.00;;;-1.00;99.90;;;;;;5030718;28;20053;-85
2022/02/13 07:20:52;;;;;;;33.40;20.10;;;-1.00;99.90;;;;;;5013057;28;20048;-84
2022/02/13 07:23:19;;;;;;;26.88;18.92;;;-0.90;99.90;;;;;;5030144;28;20473;-84
2022/02/13 07:25:47;;;;;;;28.90;18.52;;;-0.90;99.90;;;;;;5013695;28;20052;-87
2022/02/13 07:30:59;;;;;;;27.25;19.08;;;-0.90;99.90;;;;;;5030330;28;20114;-84
2022/02/13 07:33:26;;;;;;;26.77;18.85;;;-0.80;99.90;;;;;;5030343;28;20103;-85
2022/02/13 07:35:53;;;;;;;28.20;18.63;;;-0.80;99.90;;;;;;5013303;28;20060;-85
2022/02/13 07:38:20;;;;;;;26.90;18.98;;;-0.70;99.90;;;;;;5021941;28;20033;-85
2022/02/13 07:40:46;;;;;;;27.40;19.85;;;-0.70;99.90;;;;;;5029969;28;20049;-85
2022/02/13 07:43:15;;;;;;;32.22;20.85;;;-0.60;99.90;;;;;;5029627;28;20076;-84
2022/02/13 07:45:42;;;;;;;24.67;18.95;;;-0.60;99.90;;;;;;5013060;28;20289;-84
2022/02/13 07:48:11;;;;;;;31.70;20.63;;;-0.50;99.90;;;;;;5027932;28;20063;-85
2022/02/13 07:50:38;;;;;;;26.38;19.90;;;-0.40;99.90;;;;;;5029672;28;20044;-84
2022/02/13 07:53:05;;;;;;;29.30;19.98;;;-0.30;99.90;;;;;;5023175;28;20068;-84
2022/02/13 07:55:33;;;;;;;25.20;19.80;;;-0.30;99.90;;;;;;5025726;28;20041;-83
2022/02/13 07:58:00;;;;;;;31.63;19.73;;;-0.20;99.90;;;;;;5010609;28;20701;-84
2022/02/13 08:00:27;;;;;;;24.55;18.65;;;0.00;99.90;;;;;;4994355;28;20430;-83
2022/02/13 08:02:53;;;;;;;29.30;21.05;;;0.00;99.90;;;;;;5012411;28;20545;-84
2022/02/13 08:05:20;;;;;;;24.60;17.73;;;0.10;99.90;;;;;;5014829;28;20045;-84
2022/02/13 08:07:49;;;;;;;28.98;21.33;;;0.20;99.90;;;;;;5010972;28;20083;-84
2022/02/13 08:10:16;;;;;;;34.58;21.77;;;0.30;99.90;;;;;;5012090;28;20091;-84
2022/02/13 08:12:44;;;;;;;31.83;21.50;;;0.30;99.90;;;;;;5012183;28;20050;-81
2022/02/13 08:15:12;;;;;;;34.25;21.75;;;0.50;99.90;;;;;;5009030;28;20503;-83
2022/02/13 08:17:39;;;;;;;30.35;22.13;;;0.60;99.90;;;;;;5017073;28;20636;-81
2022/02/13 08:20:09;;;;;;;29.20;22.20;;;0.70;99.90;;;;;;5029294;28;20094;-83
2022/02/13 08:22:36;;;;;;;30.60;23.05;;;0.80;99.90;;;;;;5029905;28;20687;-83
2022/02/13 08:25:08;;;;;;;31.67;22.15;;;0.80;99.90;;;;;;5029052;28;20055;-83
2022/02/13 08:27:35;;;;;;;30.05;20.27;;;1.00;99.90;;;;;;5030830;28;20106;-83
2022/02/13 08:30:02;;;;;;;24.92;20.83;;;1.00;99.90;;;;;;5012780;28;20058;-85
2022/02/13 08:32:29;;;;;;;27.05;22.48;;;1.20;99.90;;;;;;5007475;28;20561;-82
2022/02/13 08:34:56;;;;;;;27.17;22.70;;;1.40;99.90;;;;;;5029245;28;20056;-83
2022/02/13 08:37:23;;;;;;;27.77;23.10;;;1.70;99.90;;;;;;5027839;28;20041;-83
2022/02/13 08:39:49;;;;;;;24.58;22.23;;;1.90;99.90;;;;;;5015581;28;20124;-84
2022/02/13 08:42:16;;;;;;;24.60;21.90;;;2.10;99.90;;;;;;5013852;28;20099;-84
2022/02/13 08:44:43;;;;;;;25.60;22.33;;;2.20;99.90;;;;;;5022459;28;20050;-82
2022/02/13 08:47:12;;;;;;;24.95;22.48;;;2.30;99.90;;;;;;5015349;28;20048;-83
2022/02/13 08:49:41;;;;;;;25.48;22.92;;;2.50;99.90;;;;;;5012492;28;20041;-84
2022/02/13 08:52:08;;;;;;;25.58;22.80;;;2.60;99.90;;;;;;5013318;28;20190;-83
2022/02/13 08:54:35;;;;;;;25.20;22.75;;;2.90;99.90;;;;;;5015265;28;20049;-83
2022/02/13 08:57:02;;;;;;;27.23;24.52;;;3.10;99.90;;;;;;5014163;28;20041;-84
2022/02/13 08:59:29;;;;;;;26.73;24.27;;;3.30;99.90;;;;;;5028244;28;20044;-83
2022/02/13 09:01:56;;;;;;;25.38;23.10;;;3.60;99.90;;;;;;5030052;28;20056;-84
2022/02/13 09:04:23;;;;;;;26.65;23.52;;;3.80;99.90;;;;;;5003441;28;20053;-84
2022/02/13 09:06:50;;;;;;;27.67;25.17;;;3.80;99.90;;;;;;5018682;28;20038;-84
2022/02/13 09:09:18;;;;;;;24.20;22.00;;;3.70;99.90;;;;;;5022824;28;20145;-84
2022/02/13 09:11:44;;;;;;;25.50;23.15;;;3.60;99.90;;;;;;5010545;28;20049;-84
2022/02/13 09:14:11;;;;;;;26.70;24.13;;;3.60;99.90;;;;;;5013462;28;20706;-84
2022/02/13 09:16:38;;;;;;;26.17;23.77;;;3.60;99.90;;;;;;5020793;28;20238;-83
2022/02/13 09:19:06;;;;;;;25.45;23.38;;;3.80;99.90;;;;;;4997716;28;20551;-83
2022/02/13 09:21:33;;;;;;;27.65;24.73;;;4.00;99.90;;;;;;4999322;28;20057;-83
2022/02/13 09:24:00;;;;;;;26.83;24.10;;;4.00;99.90;;;;;;5008365;28;20046;-83
2022/02/13 09:26:27;;;;;;;27.05;24.38;;;4.10;99.90;;;;;;5024848;28;20569;-84
2022/02/13 09:28:53;;;;;;;27.30;24.83;;;4.10;99.90;;;;;;5011240;28;20057;-84
2022/02/13 09:31:20;;;;;;;25.10;22.77;;;4.20;99.90;;;;;;5010205;28;20049;-82
2022/02/13 09:33:47;;;;;;;27.38;25.02;;;4.40;99.90;;;;;;5012666;28;20045;-83
2022/02/13 09:36:14;;;;;;;26.23;23.98;;;4.50;99.90;;;;;;5007329;28;20037;-82
2022/02/13 09:38:41;;;;;;;25.55;23.27;;;4.40;99.90;;;;;;5013965;28;20053;-84
2022/02/13 09:41:08;;;;;;;25.85;23.80;;;4.40;99.90;;;;;;5017296;28;20056;-84
2022/02/13 09:43:34;;;;;;;25.15;22.88;;;4.50;99.90;;;;;;5026233;28;20099;-83
2022/02/13 09:46:02;;;;;;;25.58;23.15;;;4.70;99.90;;;;;;5014515;28;20144;-82
2022/02/13 09:48:29;;;;;;;26.67;24.35;;;4.80;99.90;;;;;;5029925;28;20052;-83
2022/02/13 09:50:58;;;;;;;27.05;24.80;;;4.90;99.90;;;;;;5016927;28;20057;-83
2022/02/13 09:53:27;;;;;;;27.80;25.52;;;4.90;99.90;;;;;;5048581;28;20063;-84
2022/02/13 09:55:57;;;;;;;28.15;25.98;;;5.10;99.90;;;;;;5030890;28;20132;-84
2022/02/13 09:58:24;;;;;;;28.65;26.15;;;5.30;99.90;;;;;;5012164;28;20068;-83
2022/02/13 10:01:03;;;;;;;30.33;27.67;;;5.60;99.90;;;;;;5029756;28;20716;-84
2022/02/13 10:03:36;;;;;;;27.75;25.65;;;5.70;99.90;;;;;;5012169;28;20036;-84
2022/02/13 10:06:12;;;;;;;28.13;26.08;;;5.90;99.90;;;;;;5022879;28;20045;-83
2022/02/13 10:08:43;;;;;;;25.85;23.65;;;6.00;99.90;;;;;;4995246;28;20080;-84
2022/02/13 10:11:14;;;;;;;25.45;23.45;;;6.00;99.90;;;;;;5042290;28;20191;-83
2022/02/13 10:14:06;;;;;;;25.70;23.42;;;6.00;99.90;;;;;;5015501;28;20056;-83
2022/02/13 10:16:46;;;;;;;27.77;25.38;;;6.20;99.90;;;;;;5008797;28;20136;-84
2022/02/13 10:19:25;;;;;;;26.73;24.35;;;6.20;99.90;;;;;;5020393;28;20167;-83
2022/02/13 10:21:54;;;;;;;25.83;23.83;;;6.10;99.90;;;;;;5023931;28;20144;-83
2022/02/13 10:24:24;;;;;;;25.73;23.60;;;6.10;99.90;;;;;;5001348;28;20920;-83
2022/02/13 10:27:11;;;;;;;25.90;23.77;;;6.20;99.90;;;;;;5016833;28;20056;-83
2022/02/13 10:29:41;;;;;;;24.58;22.67;;;6.10;99.90;;;;;;5025303;28;20511;-81
2022/02/13 10:32:11;;;;;;;26.35;24.25;;;6.00;99.90;;;;;;5006269;28;20077;-83
2022/02/13 10:34:40;;;;;;;27.35;25.00;;;6.00;99.90;;;;;;5023706;28;20580;-84
2022/02/13 10:37:07;;;;;;;23.38;21.63;;;6.10;99.90;;;;;;5021556;28;20104;-84
2022/02/13 10:39:46;;;;;;;26.02;23.75;;;6.10;99.90;;;;;;5026398;28;20079;-82
2022/02/13 10:42:13;;;;;;;26.38;24.00;;;6.10;99.90;;;;;;5020525;28;20063;-84
2022/02/13 10:44:40;;;;;;;25.95;23.80;;;6.20;99.90;;;;;;5019429;28;20494;-83
2022/02/13 10:47:23;;;;;;;26.50;24.20;;;6.40;99.90;;;;;;5030602;28;20064;-88
2022/02/13 10:49:52;;;;;;;27.85;24.90;;;6.50;99.90;;;;;;5018585;28;20045;-83
2022/02/13 10:52:20;;;;;;;25.50;23.10;;;6.40;99.90;;;;;;5033939;28;20059;-81
2022/02/13 10:54:48;;;;;;;29.33;26.50;;;6.40;99.90;;;;;;5035894;28;20048;-82
2022/02/13 10:57:15;;;;;;;25.48;23.20;;;6.40;99.90;;;;;;5019325;28;20103;-82
2022/02/13 10:59:42;;;;;;;24.40;22.42;;;6.50;99.90;;;;;;5027286;28;20049;-80
2022/02/13 11:02:11;;;;;;;25.48;23.48;;;6.50;99.90;;;;;;5020431;28;20103;-81
2022/02/13 11:04:38;;;;;;;24.33;22.25;;;6.50;99.90;;;;;;5022879;28;20668;-81
2022/02/13 11:07:06;;;;;;;23.60;21.40;;;6.50;99.90;;;;;;5009190;28;20503;-82
2022/02/13 11:09:35;;;;;;;24.60;22.67;;;6.60;99.90;;;;;;5023313;28;20041;-82
2022/02/13 11:12:04;;;;;;;25.20;22.92;;;6.60;99.90;;;;;;5025180;28;20279;-82
2022/02/13 11:14:40;;;;;;;23.45;21.38;;;6.80;99.90;;;;;;5026987;28;20130;-83
2022/02/13 11:17:08;;;;;;;22.65;20.52;;;6.60;99.90;;;;;;5009095;28;20068;-82
2022/02/13 11:19:38;;;;;;;22.67;20.83;;;6.70;99.90;;;;;;5028273;28;20502;-83
2022/02/13 11:22:06;;;;;;;23.10;20.85;;;6.80;99.90;;;;;;5025646;28;20045;-80
2022/02/13 11:24:36;;;;;;;23.42;21.52;;;6.80;99.90;;;;;;5027261;28;20045;-83
2022/02/13 11:27:05;;;;;;;23.73;21.75;;;7.10;99.90;;;;;;5026630;28;20049;-81
2022/02/13 11:29:55;;;;;;;23.83;21.70;;;7.30;99.90;;;;;;5009388;28;20045;-81
2022/02/13 11:32:35;;;;;;;23.15;21.20;;;7.30;99.90;;;;;;5025981;28;20521;-80
2022/02/13 11:35:08;;;;;;;25.88;23.73;;;7.20;99.90;;;;;;5025384;28;20128;-83
2022/02/13 11:37:50;;;;;;;26.10;23.60;;;7.20;99.90;;;;;;5028179;28;20106;-83
2022/02/13 11:40:35;;;;;;;25.02;23.42;;;7.30;99.90;;;;;;5021714;28;20068;-83
2022/02/13 11:43:10;;;;;;;26.65;24.48;;;7.20;99.90;;;;;;5010640;28;20049;-83
2022/02/13 11:45:47;;;;;;;26.42;24.35;;;7.00;99.90;;;;;;5004870;28;20054;-83
2022/02/13 11:48:55;;;;;;;25.15;23.35;;;7.20;99.90;;;;;;5024786;28;20041;-88
2022/02/13 11:51:45;;;;;;;25.48;23.40;;;7.40;99.90;;;;;;4994351;28;20041;-87
2022/02/13 11:54:42;;;;;;;26.00;23.90;;;7.30;99.90;;;;;;5006931;28;20676;-86
2022/02/13 11:57:15;;;;;;;24.20;22.40;;;7.10;99.90;;;;;;5007359;28;20049;-85
2022/02/13 12:00:06;;;;;;;27.42;24.70;;;7.20;99.90;;;;;;5010531;28;20509;-84
2022/02/13 12:02:37;;;;;;;23.65;21.58;;;7.20;99.90;;;;;;5023073;28;20048;-84
2022/02/13 12:05:10;;;;;;;25.90;23.75;;;7.30;99.90;;;;;;5024449;28;20052;-82
2022/02/13 12:07:37;;;;;;;25.13;23.08;;;7.00;99.90;;;;;;5009236;28;20042;-85
2022/02/13 12:10:13;;;;;;;24.92;23.02;;;7.00;99.90;;;;;;5009188;28;20029;-85
2022/02/13 12:12:40;;;;;;;25.35;23.65;;;7.00;99.90;;;;;;5020691;28;20053;-87
2022/02/13 12:15:09;;;;;;;24.38;22.60;;;7.20;99.90;;;;;;4992878;28;20057;-85
2022/02/13 12:17:35;;;;;;;26.15;24.10;;;7.40;99.90;;;;;;5020646;28;20058;-86
2022/02/13 12:20:10;;;;;;;29.02;26.52;;;7.50;99.90;;;;;;5006837;28;20042;-86
2022/02/13 12:22:37;;;;;;;24.60;22.90;;;7.60;99.90;;;;;;4993304;28;20058;-85
2022/02/13 12:25:07;;;;;;;25.80;23.80;;;7.70;99.90;;;;;;5009761;28;20049;-85
2022/02/13 12:27:36;;;;;;;25.75;23.70;;;7.80;99.90;;;;;;4991913;28;20543;-81
2022/02/13 12:30:10;;;;;;;22.25;20.67;;;7.80;99.90;;;;;;4989781;28;20033;-83
2022/02/13 12:32:39;;;;;;;24.35;22.20;;;7.80;99.90;;;;;;5008004;28;20546;-85
2022/02/13 12:35:08;;;;;;;24.17;22.38;;;7.60;99.90;;;;;;5006871;28;20053;-85
2022/02/13 12:37:45;;;;;;;22.55;20.83;;;7.80;99.90;;;;;;5022162;28;20722;-83
2022/02/13 12:40:18;;;;;;;22.13;20.58;;;7.90;99.90;;;;;;5022121;28;20056;-79
2022/02/13 12:42:47;;;;;;;23.80;22.08;;;7.80;99.90;;;;;;5022639;28;20165;-87